Time;durP1;ratioP1;P1;durP2;ratioP2;P2;SDS_P1;SDS_P2;PMS_P1;PMS_P2;Temp;Humidity;BMP_temperature;BMP_pressure;BME280_temperature;BME280_humidity;BME280_pressure;Samples;Min_cycle;Max_cycle;Signal;HPM_P1;HPM_P2
2024/01/06 00:01:16;;;;;;;;;0.00;0.00;;;;;8.09;100.00;100548.31;5039147;28;60297;-95
2024/01/06 00:03:42;;;;;;;;;0.00;0.00;;;;;8.12;100.00;100545.69;5020446;28;72937;-95
2024/01/06 00:06:07;;;;;;;;;0.00;0.00;;;;;8.14;100.00;100542.16;5039008;28;45380;-95
2024/01/06 00:08:32;;;;;;;;;0.00;0.00;;;;;8.16;100.00;100549.91;5055712;28;45189;-95
2024/01/06 00:10:58;;;;;;;;;0.00;0.00;;;;;8.04;100.00;100550.16;5055363;28;55832;-95
2024/01/06 00:13:23;;;;;;;;;0.00;0.00;;;;;8.02;100.00;100547.59;5038359;28;45366;-95
2024/01/06 00:15:49;;;;;;;;;0.00;0.00;;;;;8.05;100.00;100549.28;5039256;28;45228;-95
2024/01/06 00:18:14;;;;;;;;;0.00;0.00;;;;;8.05;100.00;100550.13;5039524;28;45455;-95
2024/01/06 00:20:39;;;;;;;;;0.00;0.00;;;;;8.07;100.00;100553.53;5054866;28;47109;-95
2024/01/06 00:23:05;;;;;;;;;0.00;0.00;;;;;8.08;100.00;100557.84;5039297;28;45291;-95
2024/01/06 00:25:30;;;;;;;;;0.00;0.00;;;;;8.04;100.00;100556.22;5053974;28;67608;-95
2024/01/06 00:27:55;;;;;;;;;0.00;0.00;;;;;8.03;100.00;100561.44;5055061;28;45762;-94
2024/01/06 00:30:21;;;;;;;;;0.00;0.00;;;;;7.99;100.00;100554.59;5037773;28;53658;-94
2024/01/06 00:32:46;;;;;;;;;0.00;0.00;;;;;7.95;100.00;100556.41;5037156;28;71314;-95
2024/01/06 00:35:11;;;;;;;;;0.67;0.67;;;;;7.92;100.00;100561.66;5053662;28;70299;-94
2024/01/06 00:37:37;;;;;;;;;0.00;0.00;;;;;7.94;100.00;100560.72;5039336;28;45277;-94
2024/01/06 00:40:02;;;;;;;;;0.00;0.00;;;;;7.95;100.00;100557.25;5037621;28;57605;-95
2024/01/06 00:42:27;;;;;;;;;0.00;0.00;;;;;8.00;100.00;100558.88;5036877;28;45586;-95
2024/01/06 00:44:53;;;;;;;;;0.00;0.00;;;;;8.00;100.00;100557.16;5054000;28;69450;-94
2024/01/06 00:47:18;;;;;;;;;0.00;0.00;;;;;8.01;100.00;100568.38;5036960;28;70380;-95
2024/01/06 00:49:43;;;;;;;;;0.00;0.00;;;;;7.94;100.00;100565.91;5039052;28;46488;-94
2024/01/06 00:52:09;;;;;;;;;0.00;0.00;;;;;7.90;100.00;100568.59;5038743;28;45403;-94
2024/01/06 00:54:34;;;;;;;;;0.00;0.00;;;;;7.87;100.00;100571.25;5053681;28;68070;-95
2024/01/06 00:56:59;;;;;;;;;0.00;0.00;;;;;7.80;100.00;100562.75;5054553;28;68497;-95
2024/01/06 00:59:25;;;;;;;;;0.00;0.00;;;;;7.78;100.00;100576.63;5055348;28;46900;-94
2024/01/06 01:01:50;;;;;;;;;0.00;0.00;;;;;7.69;100.00;100575.06;5053728;28;45298;-95
2024/01/06 01:04:16;;;;;;;;;0.67;0.67;;;;;7.61;100.00;100577.78;5038853;28;45270;-92
2024/01/06 01:06:41;;;;;;;;;0.00;0.00;;;;;7.57;100.00;100578.75;5037648;28;45338;-94
2024/01/06 01:09:06;;;;;;;;;0.00;0.00;;;;;7.51;100.00;100571.09;5037632;28;46157;-94
2024/01/06 01:11:32;;;;;;;;;0.00;0.00;;;;;7.50;100.00;100577.16;5053943;28;45438;-94
2024/01/06 01:13:57;;;;;;;;;0.00;0.00;;;;;7.44;100.00;100572.09;5037611;28;45450;-94
2024/01/06 01:16:22;;;;;;;;;0.00;0.00;;;;;7.40;100.00;100581.66;5050494;28;45465;-94
2024/01/06 01:18:48;;;;;;;;;0.00;0.00;;;;;7.39;100.00;100585.09;5017470;28;45302;-94
2024/01/06 01:21:14;;;;;;;;;0.00;0.00;;;;;7.37;100.00;100579.09;5017588;28;74851;-94
2024/01/06 01:23:40;;;;;;;;;0.00;0.00;;;;;7.35;100.00;100596.41;5017308;28;45342;-94
2024/01/06 01:26:05;;;;;;;;;0.00;0.00;;;;;7.34;100.00;100590.38;5017772;28;65821;-95
2024/01/06 01:28:30;;;;;;;;;0.00;0.00;;;;;7.28;100.00;100598.28;5018382;28;45349;-94
2024/01/06 01:30:56;;;;;;;;;0.00;0.00;;;;;7.26;100.00;100594.88;5017200;28;45350;-93
2024/01/06 01:33:21;;;;;;;;;0.00;0.00;;;;;7.30;100.00;100595.63;5037511;28;45294;-94
2024/01/06 01:35:46;;;;;;;;;0.00;0.00;;;;;7.26;100.00;100597.44;5037506;28;45230;-94
2024/01/06 01:38:12;;;;;;;;;0.00;0.00;;;;;7.24;100.00;100604.34;5036433;28;74312;-93
2024/01/06 01:40:37;;;;;;;;;0.00;0.00;;;;;7.23;100.00;100602.66;5037041;28;63367;-94
2024/01/06 01:43:02;;;;;;;;;0.00;0.00;;;;;7.23;100.00;100607.84;5037420;28;45292;-94
2024/01/06 01:45:28;;;;;;;;;0.00;0.00;;;;;7.22;100.00;100611.31;5038356;28;45409;-94
2024/01/06 01:47:53;;;;;;;;;0.00;0.00;;;;;7.17;100.00;100610.56;5052670;28;65741;-94
2024/01/06 01:50:20;;;;;;;;;0.00;0.00;;;;;7.16;100.00;100611.41;5036784;28;45454;-94
2024/01/06 01:52:45;;;;;;;;;0.00;0.00;;;;;7.12;100.00;100609.75;5037047;28;45338;-94
2024/01/06 01:55:11;;;;;;;;;0.00;0.00;;;;;7.12;100.00;100612.34;5036537;28;55219;-94
2024/01/06 01:57:36;;;;;;;;;0.00;0.00;;;;;7.16;100.00;100616.59;5036280;28;51863;-93
2024/01/06 02:00:03;;;;;;;;;0.00;0.00;;;;;7.17;100.00;100613.97;5033525;28;45322;-94
2024/01/06 02:02:28;;;;;;;;;0.00;0.00;;;;;7.15;100.00;100617.47;5020925;28;45437;-94
2024/01/06 02:04:55;;;;;;;;;0.00;0.00;;;;;7.13;100.00;100622.69;5053861;28;45342;-94
2024/01/06 02:07:21;;;;;;;;;0.00;0.00;;;;;7.09;100.00;100614.97;5053417;28;46320;-93
2024/01/06 02:09:46;;;;;;;;;0.00;0.00;;;;;7.07;100.00;100621.91;5052124;28;73614;-93
2024/01/06 02:12:11;;;;;;;;;0.00;0.00;;;;;7.04;100.00;100624.56;5035749;28;63956;-93
2024/01/06 02:14:37;;;;;;;;;0.00;0.00;;;;;7.04;100.00;100630.59;5036303;28;67655;-94
2024/01/06 02:17:02;;;;;;;;;0.00;0.00;;;;;7.05;100.00;100642.66;5038582;28;45957;-93
2024/01/06 02:19:27;;;;;;;;;0.00;0.00;;;;;7.08;100.00;100636.59;5037807;28;45239;-94
2024/01/06 02:21:53;;;;;;;;;0.00;0.00;;;;;7.12;100.00;100627.88;5036549;28;45322;-93
2024/01/06 02:24:19;;;;;;;;;0.00;0.00;;;;;7.14;100.00;100626.13;5037572;28;45256;-94
2024/01/06 02:26:44;;;;;;;;;0.00;0.00;;;;;7.20;100.00;100638.09;5036550;28;45421;-94
2024/01/06 02:29:09;;;;;;;;;0.00;0.00;;;;;7.20;100.00;100640.69;5034980;28;72718;-93
2024/01/06 02:31:35;;;;;;;;;0.00;0.00;;;;;7.18;100.00;100641.56;5036860;28;64076;-94
2024/01/06 02:34:00;;;;;;;;;0.00;0.00;;;;;7.16;100.00;100645.91;5035279;28;61010;-93
2024/01/06 02:36:25;;;;;;;;;0.00;0.00;;;;;7.16;100.00;100650.25;5052345;28;49147;-94
2024/01/06 02:38:51;;;;;;;;;0.00;0.00;;;;;7.17;100.00;100650.22;5023140;28;45338;-94
2024/01/06 02:41:16;;;;;;;;;0.00;0.00;;;;;7.20;100.00;100651.06;4998941;28;69910;-95
2024/01/06 02:43:41;;;;;;;;;0.00;0.00;;;;;7.26;100.00;100653.53;5032396;28;63678;-94
2024/01/06 02:46:07;;;;;;;;;0.00;0.00;;;;;7.31;100.00;100657.75;5051352;28;48208;-94
2024/01/06 02:48:32;;;;;;;;;0.00;0.00;;;;;7.31;100.00;100659.50;5035809;28;46677;-94
2024/01/06 02:50:57;;;;;;;;;0.00;0.00;;;;;7.31;100.00;100664.69;5051538;28;58691;-93
2024/01/06 02:53:23;;;;;;;;;0.00;0.00;;;;;7.26;100.00;100669.94;5037097;28;45233;-92
2024/01/06 02:55:48;;;;;;;;;0.00;0.00;;;;;7.21;100.00;100661.38;5051669;28;76711;-93
2024/01/06 02:58:13;;;;;;;;;0.00;0.00;;;;;7.21;100.00;100669.16;5051867;28;69625;-94
2024/01/06 03:00:39;;;;;;;;;0.00;0.00;;;;;7.16;100.00;100676.97;5052041;28;66140;-94
2024/01/06 03:03:04;;;;;;;;;0.00;0.00;;;;;7.29;100.00;100677.63;5036228;28;45620;-94
2024/01/06 03:05:30;;;;;;;;;0.00;0.00;;;;;7.05;100.00;100681.47;5035761;28;64796;-93
2024/01/06 03:07:55;;;;;;;;;12.00;12.00;;;;;7.05;100.00;100678.03;5036788;28;54511;-93
2024/01/06 03:10:20;;;;;;;;;0.00;0.00;;;;;7.05;100.00;100680.63;5035045;28;71264;-94
2024/01/06 03:12:46;;;;;;;;;0.00;0.00;;;;;7.09;100.00;100688.31;5036233;28;45282;-94
2024/01/06 03:15:11;;;;;;;;;0.00;0.00;;;;;7.10;100.00;100684.84;5037312;28;46382;-94
2024/01/06 03:17:37;;;;;;;;;0.00;0.00;;;;;7.14;100.00;100688.25;5035041;28;45294;-93
2024/01/06 03:20:03;;;;;;;;;0.00;0.00;;;;;7.17;100.00;100681.28;5036725;28;45571;-94
2024/01/06 03:22:29;;;;;;;;;0.00;0.00;;;;;7.22;100.00;100686.38;5036262;28;45453;-94
2024/01/06 03:24:54;;;;;;;;;0.33;0.33;;;;;7.26;100.00;100695.84;5035342;28;61762;-94
2024/01/06 03:27:19;;;;;;;;;0.00;0.00;;;;;7.28;100.00;100691.47;5036161;28;73183;-93
2024/01/06 03:29:45;;;;;;;;;17.00;17.00;;;;;7.49;100.00;100686.81;5037017;28;45596;-94
2024/01/06 03:32:10;;;;;;;;;0.00;0.00;;;;;7.35;100.00;100692.22;5039791;28;45353;-94
2024/01/06 03:34:35;;;;;;;;;0.00;0.00;;;;;7.53;100.00;100697.09;5036775;28;68375;-95
2024/01/06 03:37:01;;;;;;;;;0.00;0.00;;;;;7.61;100.00;100693.53;5055633;28;53083;-94
2024/01/06 03:39:26;;;;;;;;;0.00;0.00;;;;;7.67;100.00;100696.88;5054639;28;68964;-94
2024/01/06 03:41:51;;;;;;;;;0.00;0.00;;;;;7.73;100.00;100693.31;5037972;28;68317;-94
2024/01/06 03:44:17;;;;;;;;;0.00;0.00;;;;;7.75;100.00;100692.41;5038996;28;46973;-94
2024/01/06 03:46:42;;;;;;;;;0.00;0.00;;;;;7.72;100.00;100697.63;5021353;28;73509;-94
2024/01/06 03:49:07;;;;;;;;;0.00;0.00;;;;;7.79;100.00;100705.31;5028850;28;54942;-94
2024/01/06 03:51:33;;;;;;;;;0.00;0.00;;;;;7.71;100.00;100695.94;5022697;28;45432;-94
2024/01/06 03:53:58;;;;;;;;;0.00;0.00;;;;;7.67;100.00;100708.94;5038721;28;45265;-94
2024/01/06 03:56:23;;;;;;;;;0.00;0.00;;;;;7.68;100.00;100698.56;5037919;28;71485;-93
2024/01/06 03:58:48;;;;;;;;;0.00;0.00;;;;;7.87;100.00;100704.25;5038135;28;61806;-93
2024/01/06 04:01:14;;;;;;;;;0.00;0.00;;;;;7.68;100.00;100701.16;5037720;28;65378;-94
2024/01/06 04:03:42;;;;;;;;;0.00;0.00;;;;;7.60;100.00;100704.78;5037591;28;73620;-94
2024/01/06 04:06:08;;;;;;;;;0.00;0.00;;;;;7.81;100.00;100713.91;5022423;28;45786;-94
2024/01/06 04:08:33;;;;;;;;;0.00;0.00;;;;;7.68;100.00;100715.84;5038057;28;45421;-94
2024/01/06 04:10:59;;;;;;;;;0.00;0.00;;;;;7.66;100.00;100715.03;5038855;28;45306;-94
2024/01/06 04:13:24;;;;;;;;;0.00;0.00;;;;;7.67;100.00;100711.53;5054601;28;76615;-94
2024/01/06 04:15:50;;;;;;;;;0.00;0.00;;;;;7.68;100.00;100710.69;5038396;28;45388;-94
2024/01/06 04:18:16;;;;;;;;;0.00;0.00;;;;;7.71;100.00;100721.00;5039024;28;45621;-94
2024/01/06 04:20:41;;;;;;;;;0.00;0.00;;;;;7.70;100.00;100717.53;5037782;28;45545;-94
2024/01/06 04:23:06;;;;;;;;;114.67;111.00;;;;;7.69;100.00;100725.31;5053977;28;75406;-94
2024/01/06 04:25:32;;;;;;;;;1.00;1.00;;;;;7.69;100.00;100725.31;5037373;28;69051;-94
2024/01/06 04:27:57;;;;;;;;;0.00;0.00;;;;;7.66;100.00;100723.66;5038486;28;67170;-94
2024/01/06 04:30:24;;;;;;;;;0.00;0.00;;;;;7.66;100.00;100722.81;5054008;28;66031;-94
2024/01/06 04:32:49;;;;;;;;;0.00;0.00;;;;;7.71;100.00;100728.78;5037813;28;45332;-94
2024/01/06 04:35:15;;;;;;;;;0.00;0.00;;;;;7.74;100.00;100731.28;5053437;28;57238;-93
2024/01/06 04:37:40;;;;;;;;;0.00;0.00;;;;;7.77;100.00;100739.00;5054911;28;45263;-93
2024/01/06 04:40:06;;;;;;;;;0.00;0.00;;;;;8.05;100.00;100730.75;5037329;28;69769;-93
2024/01/06 04:42:31;;;;;;;;;0.00;0.00;;;;;8.12;100.00;100738.38;5038981;28;46067;-93
2024/01/06 04:44:56;;;;;;;;;0.00;0.00;;;;;8.13;100.00;100737.50;5053933;28;74689;-95
2024/01/06 04:47:22;;;;;;;;;0.00;0.00;;;;;8.18;100.00;100744.34;5038426;28;68150;-94
2024/01/06 04:49:47;;;;;;;;;1.00;1.00;;;;;8.20;100.00;100752.94;5037280;28;63965;-95
2024/01/06 04:52:13;;;;;;;;;0.00;0.00;;;;;8.21;100.00;100747.72;5038557;28;65107;-95
2024/01/06 04:54:38;;;;;;;;;0.00;0.00;;;;;8.22;100.00;100752.03;5050206;28;45309;-95
2024/01/06 04:57:04;;;;;;;;;0.00;0.00;;;;;8.27;100.00;100750.19;5034263;28;68172;-93
2024/01/06 04:59:29;;;;;;;;;0.00;0.00;;;;;8.08;100.00;100756.63;5018980;28;45428;-94
2024/01/06 05:01:55;;;;;;;;;0.00;0.00;;;;;8.01;100.00;100752.44;5017679;28;45481;-95
2024/01/06 05:04:20;;;;;;;;;0.00;0.00;;;;;8.00;100.00;100748.97;5034911;28;45394;-94
2024/01/06 05:06:45;;;;;;;;;0.00;0.00;;;;;8.03;100.00;100761.88;5017818;28;45395;-94
2024/01/06 05:09:11;;;;;;;;;0.00;0.00;;;;;8.05;100.00;100764.44;5018673;28;45399;-94
2024/01/06 05:11:36;;;;;;;;;6.00;6.00;;;;;8.06;100.00;100761.84;5038506;28;75094;-94
2024/01/06 05:14:01;;;;;;;;;0.00;0.00;;;;;8.06;100.00;100760.97;5017916;28;61799;-94
2024/01/06 05:16:27;;;;;;;;;0.00;0.00;;;;;8.03;100.00;100763.63;5018593;28;45448;-95
2024/01/06 05:18:53;;;;;;;;;0.00;0.00;;;;;7.99;100.00;100765.41;5034360;28;45304;-94
2024/01/06 05:21:19;;;;;;;;;0.00;0.00;;;;;7.95;100.00;100763.78;5032638;28;47491;-95
2024/01/06 05:23:44;;;;;;;;;0.50;0.50;;;;;7.89;100.00;100764.72;5021153;28;45466;-95
2024/01/06 05:26:12;;;;;;;;;0.00;0.00;;;;;8.03;100.00;100764.47;5037646;28;69448;-95
2024/01/06 05:28:37;;;;;;;;;0.00;0.00;;;;;8.00;100.00;100767.09;5037748;28;45326;-95
2024/01/06 05:31:02;;;;;;;;;0.00;0.00;;;;;7.73;100.00;100771.91;5053726;28;48025;-94
2024/01/06 05:33:28;;;;;;;;;0.00;0.00;;;;;7.62;100.00;100768.63;5037249;28;45278;-94
2024/01/06 05:35:53;;;;;;;;;0.00;0.00;;;;;7.58;100.00;100777.34;5052066;28;68241;-96
2024/01/06 05:38:18;;;;;;;;;0.00;0.00;;;;;7.55;100.00;100770.44;5036024;28;71240;-95
2024/01/06 05:40:44;;;;;;;;;0.00;0.00;;;;;7.52;100.00;100769.63;5052998;28;75608;-94
2024/01/06 05:43:09;;;;;;;;;0.00;0.00;;;;;7.51;100.00;100778.31;5036776;28;45433;-95
2024/01/06 05:45:36;;;;;;;;;0.00;0.00;;;;;7.45;100.00;100781.84;5053429;28;45505;-95
2024/01/06 05:48:02;;;;;;;;;0.00;0.00;;;;;7.60;100.00;100774.72;5038375;28;45388;-94
2024/01/06 05:50:29;;;;;;;;;0.00;0.00;;;;;7.60;100.00;100778.16;5037860;28;46525;-94
2024/01/06 05:52:54;;;;;;;;;0.00;0.00;;;;;7.35;100.00;100777.69;5036676;28;45246;-95
2024/01/06 05:55:20;;;;;;;;;0.00;0.00;;;;;7.30;100.00;100779.47;5019383;28;63145;-95
2024/01/06 05:57:46;;;;;;;;;0.00;0.00;;;;;7.24;100.00;100782.16;5036878;28;45274;-95
2024/01/06 06:00:12;;;;;;;;;4.00;4.00;;;;;7.20;100.00;100785.69;5018678;28;77580;-94
2024/01/06 06:02:38;;;;;;;;;0.00;0.00;;;;;7.17;100.00;100789.19;5037814;28;45184;-95
2024/01/06 06:05:03;;;;;;;;;0.00;0.00;;;;;7.13;100.00;100787.47;5037086;28;45618;-94
2024/01/06 06:07:29;;;;;;;;;0.00;0.00;;;;;7.10;100.00;100795.31;5036429;28;45653;-94
2024/01/06 06:09:54;;;;;;;;;0.00;0.00;;;;;7.09;100.00;100802.19;5035054;28;78171;-94
2024/01/06 06:12:19;;;;;;;;;0.00;0.00;;;;;7.05;100.00;100805.72;5053241;28;45400;-95
2024/01/06 06:14:45;;;;;;;;;0.00;0.00;;;;;7.03;100.00;100812.63;5051931;28;65569;-94
2024/01/06 06:17:11;;;;;;;;;0.00;0.00;;;;;6.99;100.00;100816.16;5052960;28;68204;-95
2024/01/06 06:19:36;;;;;;;;;0.00;0.00;;;;;6.94;100.00;100818.78;5018738;28;74398;-94
2024/01/06 06:22:02;;;;;;;;;0.00;0.00;;;;;6.94;100.00;100820.53;5051767;28;72081;-94
2024/01/06 06:24:27;;;;;;;;;0.00;0.00;;;;;6.99;100.00;100829.09;5052771;28;60203;-93
2024/01/06 06:26:52;;;;;;;;;0.00;0.00;;;;;7.03;100.00;100832.50;5052468;28;66027;-94
2024/01/06 06:29:18;;;;;;;;;0.00;0.00;;;;;7.08;100.00;100838.47;5035004;28;75496;-93
2024/01/06 06:31:44;;;;;;;;;0.00;0.00;;;;;7.13;100.00;100834.06;5053480;28;45325;-94
2024/01/06 06:34:10;;;;;;;;;0.00;0.00;;;;;7.39;100.00;100851.00;5033215;28;45204;-91
2024/01/06 06:36:36;;;;;;;;;0.00;0.00;;;;;7.51;100.00;100849.09;5022598;28;45254;-94
2024/01/06 06:39:01;;;;;;;;;0.00;0.00;;;;;7.61;100.00;100854.13;5037684;28;46225;-94
2024/01/06 06:41:27;;;;;;;;;0.00;0.00;;;;;7.60;100.00;100853.28;5037724;28;45364;-94
2024/01/06 06:43:52;;;;;;;;;0.00;0.00;;;;;7.45;100.00;100856.13;5052619;28;45417;-94
2024/01/06 06:46:17;;;;;;;;;0.00;0.00;;;;;7.46;100.00;100857.81;5018928;28;71513;-93
2024/01/06 06:48:42;;;;;;;;;0.00;0.00;;;;;7.66;100.00;100858.38;5019867;28;47075;-93
2024/01/06 06:51:08;;;;;;;;;0.00;0.00;;;;;7.73;100.00;100864.34;5037610;28;45203;-94
2024/01/06 06:53:33;;;;;;;;;0.00;0.00;;;;;7.77;100.00;100875.50;5036392;28;58636;-93
2024/01/06 06:55:59;;;;;;;;;0.00;0.00;;;;;7.64;100.00;100877.41;5048182;28;45322;-96
2024/01/06 06:58:25;;;;;;;;;0.00;0.00;;;;;7.61;100.00;100878.31;5033238;28;63041;-90
2024/01/06 07:00:50;;;;;;;;;0.00;0.00;;;;;7.65;100.00;100876.53;5033164;28;45399;-90
2024/01/06 07:03:16;;;;;;;;;0.00;0.00;;;;;7.68;100.00;100879.09;5034153;28;57008;-88
2024/01/06 07:05:41;;;;;;;;;0.00;0.00;;;;;7.69;100.00;100883.38;5038236;28;45492;-90
2024/01/06 07:08:06;;;;;;;;;0.00;0.00;;;;;7.70;100.00;100882.50;5023317;28;46952;-89
2024/01/06 07:10:32;;;;;;;;;0.00;0.00;;;;;7.72;100.00;100888.53;5031081;28;45300;-90
2024/01/06 07:12:57;;;;;;;;;0.00;0.00;;;;;7.71;100.00;100892.84;5038652;28;50232;-91
2024/01/06 07:15:22;;;;;;;;;0.00;0.00;;;;;7.71;100.00;100902.38;5038819;28;50142;-89
2024/01/06 07:17:48;;;;;;;;;0.00;0.00;;;;;7.73;100.00;100908.38;5039216;28;75397;-88
2024/01/06 07:20:13;;;;;;;;;0.00;0.00;;;;;7.75;100.00;100909.22;5038355;28;60256;-90
2024/01/06 07:22:38;;;;;;;;;1.00;1.00;;;;;7.74;100.00;100910.97;5038462;28;45876;-93
2024/01/06 07:25:05;;;;;;;;;0.00;0.00;;;;;7.77;100.00;100915.22;5055891;28;45664;-92
2024/01/06 07:27:30;;;;;;;;;0.00;0.00;;;;;7.78;100.00;100916.91;5039700;28;46555;-90
2024/01/06 07:29:56;;;;;;;;;0.00;0.00;;;;;7.83;100.00;100920.31;5039316;28;45291;-91
2024/01/06 07:32:22;;;;;;;;;0.00;0.00;;;;;7.80;100.00;100925.56;5055860;28;45291;-93
2024/01/06 07:34:48;;;;;;;;;0.00;0.00;;;;;7.82;100.00;100928.09;5040440;28;45614;-94
2024/01/06 07:37:13;;;;;;;;;0.00;0.00;;;;;7.81;100.00;100931.59;5020262;28;75989;-89
2024/01/06 07:39:38;;;;;;;;;0.00;0.00;;;;;7.82;100.00;100936.75;5037828;28;66263;-88
2024/01/06 07:42:04;;;;;;;;;0.00;0.00;;;;;7.80;100.00;100938.50;5038476;28;45304;-89
2024/01/06 07:44:29;;;;;;;;;0.00;0.00;;;;;8.03;100.00;100943.34;5054623;28;63641;-91
2024/01/06 07:46:55;;;;;;;;;0.00;0.00;;;;;8.04;100.00;100945.06;5039767;28;46581;-91
2024/01/06 07:49:20;;;;;;;;;0.00;0.00;;;;;8.07;100.00;100949.34;5039915;28;45318;-90
2024/01/06 07:51:46;;;;;;;;;0.00;0.00;;;;;8.08;100.00;100951.06;5039307;28;56823;-90
2024/01/06 07:54:11;;;;;;;;;0.00;0.00;;;;;7.89;100.00;100948.75;5036367;28;69232;-90
2024/01/06 07:56:37;;;;;;;;;0.00;0.00;;;;;7.86;100.00;100946.19;5038466;28;46982;-89
2024/01/06 07:59:03;;;;;;;;;0.00;0.00;;;;;7.82;100.00;100944.53;5038372;28;45381;-88
2024/01/06 08:01:28;;;;;;;;;0.00;0.00;;;;;7.86;100.00;100953.13;5040784;28;45311;-91
2024/01/06 08:03:53;;;;;;;;;0.00;0.00;;;;;7.84;100.00;100954.88;5038893;28;68522;-92
2024/01/06 08:06:19;;;;;;;;;0.00;0.00;;;;;8.09;100.00;100964.00;5040018;28;51833;-92
2024/01/06 08:08:45;;;;;;;;;0.00;0.00;;;;;7.95;100.00;100971.97;5037570;28;55751;-88
2024/01/06 08:11:11;;;;;;;;;0.00;0.00;;;;;7.90;100.00;100973.78;5039876;28;45207;-92
2024/01/06 08:13:36;;;;;;;;;0.00;0.00;;;;;7.93;100.00;100978.03;5055902;28;45550;-91
2024/01/06 08:16:02;;;;;;;;;0.00;0.00;;;;;7.94;100.00;100982.38;5038562;28;71310;-91
2024/01/06 08:18:27;;;;;;;;;0.00;0.00;;;;;7.95;100.00;100982.34;5039749;28;45291;-89
2024/01/06 08:20:53;;;;;;;;;0.00;0.00;;;;;8.19;100.00;100989.78;5019927;28;45661;-88
2024/01/06 08:23:20;;;;;;;;;0.00;0.00;;;;;7.99;100.00;100987.50;5038206;28;67496;-90
2024/01/06 08:25:45;;;;;;;;;0.00;0.00;;;;;8.02;100.00;100996.06;5017217;28;47120;-87
2024/01/06 08:28:11;;;;;;;;;0.00;0.00;;;;;8.02;100.00;100993.47;5035024;28;45440;-85
2024/01/06 08:30:36;;;;;;;;;0.00;0.00;;;;;8.03;100.00;100997.78;5019526;28;45333;-90
2024/01/06 08:33:02;;;;;;;;;0.00;0.00;;;;;8.08;100.00;101002.94;5021821;28;71305;-89
2024/01/06 08:35:27;;;;;;;;;0.00;0.00;;;;;8.08;100.00;100997.75;5018638;28;47661;-87
2024/01/06 08:37:52;;;;;;;;;1.00;1.00;;;;;8.08;100.00;101005.53;5022219;28;51889;-89
2024/01/06 08:40:18;;;;;;;;;0.00;0.00;;;;;8.12;100.00;101002.84;5054221;28;58042;-91
2024/01/06 08:42:44;;;;;;;;;0.00;0.00;;;;;8.10;100.00;101007.19;5038033;28;45351;-90
2024/01/06 08:45:09;;;;;;;;;0.00;0.00;;;;;8.08;100.00;101008.13;5037755;28;46100;-90
2024/01/06 08:47:35;;;;;;;;;0.00;0.00;;;;;8.13;100.00;101011.47;5025637;28;46711;-89
2024/01/06 08:50:00;;;;;;;;;0.00;0.00;;;;;8.17;100.00;101013.13;5018275;28;45234;-88
2024/01/06 08:52:25;;;;;;;;;0.00;0.00;;;;;8.19;100.00;101013.13;5001545;28;45300;-86
2024/01/06 08:54:51;;;;;;;;;0.33;0.33;;;;;8.17;100.00;101020.06;5025676;28;63959;-89
2024/01/06 08:57:16;;;;;;;;;0.00;0.00;;;;;8.17;100.00;101025.25;5021744;28;45246;-87
2024/01/06 08:59:41;;;;;;;;;0.00;0.00;;;;;8.16;100.00;101027.00;5054323;28;45257;-89
2024/01/06 09:02:07;;;;;;;;;0.00;0.00;;;;;8.22;100.00;101036.41;5038035;28;45503;-89
2024/01/06 09:04:33;;;;;;;;;0.00;0.00;;;;;8.27;100.00;101040.66;5038169;28;45651;-91
2024/01/06 09:06:58;;;;;;;;;0.00;0.00;;;;;8.30;100.00;101038.03;5021748;28;45239;-90
2024/01/06 09:09:24;;;;;;;;;0.00;0.00;;;;;8.49;100.00;101040.38;5035978;28;45462;-86
2024/01/06 09:11:49;;;;;;;;;0.00;0.00;;;;;8.46;100.00;101041.28;5038716;28;45329;-88
2024/01/06 09:14:17;;;;;;;;;0.00;0.00;;;;;8.46;100.00;101032.63;5039153;28;49755;-93
2024/01/06 09:16:42;;;;;;;;;9.00;9.00;;;;;8.52;100.00;101036.00;5020927;28;46051;-88
2024/01/06 09:19:07;;;;;;;;;0.00;0.00;;;;;8.64;100.00;101050.50;5036626;28;46787;-89
2024/01/06 09:21:33;;;;;;;;;0.00;0.00;;;;;8.68;100.00;101046.97;5044291;28;45443;-89
2024/01/06 09:24:00;;;;;;;;;0.00;0.00;;;;;8.78;100.00;101042.50;5028211;28;62836;-91
2024/01/06 09:26:25;;;;;;;;;0.00;0.00;;;;;8.91;100.00;101059.59;5036828;28;45499;-87
2024/01/06 09:28:51;;;;;;;;;0.00;0.00;;;;;9.03;100.00;101050.72;5037052;28;45288;-88
2024/01/06 09:31:16;;;;;;;;;0.00;0.00;;;;;9.07;100.00;101059.31;5038297;28;50959;-88
2024/01/06 09:33:41;;;;;;;;;0.00;0.00;;;;;9.11;100.00;101064.44;5052346;28;76669;-89
2024/01/06 09:36:08;;;;;;;;;0.00;0.00;;;;;9.13;100.00;101063.56;5053089;28;45535;-88
2024/01/06 09:38:33;;;;;;;;;0.00;0.00;;;;;9.09;100.00;101067.94;5035304;28;45473;-89
2024/01/06 09:40:59;;;;;;;;;0.00;0.00;;;;;9.11;100.00;101068.78;5035235;28;59402;-88
2024/01/06 09:43:25;;;;;;;;;0.00;0.00;;;;;9.16;100.00;101073.91;5036122;28;45625;-90
2024/01/06 09:46:06;;;;;;;;;0.00;0.00;;;;;9.23;100.00;101073.75;5040423;28;45355;-89
2024/01/06 09:48:33;;;;;;;;;0.00;0.00;;;;;9.30;100.00;101082.28;5053060;28;45255;-87
2024/01/06 09:51:02;;;;;;;;;0.00;0.00;;;;;9.32;100.00;101083.09;5052565;28;45592;-87
2024/01/06 09:53:34;;;;;;;;;0.00;0.00;;;;;9.37;100.00;101083.88;5035677;28;46975;-89
2024/01/06 09:55:59;;;;;;;;;0.00;0.00;;;;;9.39;100.00;101094.25;5036137;28;45462;-87
2024/01/06 09:58:29;;;;;;;;;0.00;0.00;;;;;9.38;100.00;101085.63;5052641;28;45609;-88
2024/01/06 10:00:56;;;;;;;;;0.00;0.00;;;;;9.39;100.00;101089.91;5053177;28;45540;-91
2024/01/06 10:03:21;;;;;;;;;1.00;1.00;;;;;9.40;100.00;101081.25;5053358;28;47442;-91
2024/01/06 10:05:48;;;;;;;;;0.00;0.00;;;;;9.40;100.00;101089.03;5035897;28;73114;-90
2024/01/06 10:08:13;;;;;;;;;0.00;0.00;;;;;9.44;100.00;101095.03;5054482;28;45195;-91
2024/01/06 10:10:38;;;;;;;;;0.00;0.00;;;;;9.51;100.00;101091.44;5052931;28;45501;-90
2024/01/06 10:13:04;;;;;;;;;0.00;0.00;;;;;9.59;100.00;101097.34;5033996;28;48803;-92
2024/01/06 10:15:29;;;;;;;;;0.00;0.00;;;;;9.61;100.00;101092.97;5017979;28;45275;-89
2024/01/06 10:17:55;;;;;;;;;0.00;0.00;;;;;9.66;100.00;101100.69;5015927;28;70393;-90
2024/01/06 10:20:21;;;;;;;;;0.00;0.00;;;;;9.65;100.00;101099.81;4999622;28;45336;-88
2024/01/06 10:22:46;;;;;;;;;0.00;0.00;;;;;9.67;100.00;101104.97;5049667;28;66141;-93
2024/01/06 10:25:12;;;;;;;;;1.00;1.00;;;;;9.67;100.00;101102.38;5035207;28;45398;-91
2024/01/06 10:27:38;;;;;;;;;0.00;0.00;;;;;9.60;100.00;101108.59;5038125;28;45615;-94
2024/01/06 10:30:05;;;;;;;;;0.00;0.00;;;;;9.60;100.00;101099.06;5053668;28;45493;-91
2024/01/06 10:32:34;;;;;;;;;0.75;0.75;;;;;9.54;100.00;101100.91;5035522;28;47350;-89
2024/01/06 10:35:03;;;;;;;;;0.00;0.00;;;;;9.54;100.00;101103.50;5034730;28;45701;-93
2024/01/06 10:37:29;;;;;;;;;0.00;0.00;;;;;9.53;100.00;101109.56;5033433;28;45327;-87
2024/01/06 10:40:08;;;;;;;;;0.00;0.00;;;;;9.54;100.00;101112.16;5031619;28;45374;-86
2024/01/06 10:42:33;;;;;;;;;0.00;0.00;;;;;9.56;100.00;101101.75;5042234;28;47662;-87
2024/01/06 10:45:00;;;;;;;;;0.00;0.00;;;;;9.59;100.00;101110.34;5048337;28;45582;-93
2024/01/06 10:47:31;;;;;;;;;0.00;0.00;;;;;9.56;100.00;101104.34;5022644;28;45330;-87
2024/01/06 10:49:59;;;;;;;;;3.75;1.00;;;;;9.61;100.00;101108.56;5038741;28;45445;-88
2024/01/06 10:52:24;;;;;;;;;0.00;0.00;;;;;9.61;100.00;101108.56;5038386;28;46243;-91
2024/01/06 10:54:51;;;;;;;;;0.00;0.00;;;;;9.61;100.00;101102.50;5038660;28;73359;-86
2024/01/06 10:57:18;;;;;;;;;0.00;0.00;;;;;9.65;100.00;101105.00;5020884;28;59056;-87
2024/01/06 10:59:45;;;;;;;;;0.00;0.00;;;;;9.72;100.00;101107.50;5050500;28;45413;-86
2024/01/06 11:02:12;;;;;;;;;0.00;0.00;;;;;9.76;100.00;101107.41;5036559;28;47885;-86
2024/01/06 11:04:37;;;;;;;;;0.00;0.00;;;;;9.87;100.00;101108.03;5026540;28;68219;-86
2024/01/06 11:07:03;;;;;;;;;0.00;0.00;;;;;9.97;100.00;101110.47;5028606;28;45468;-88
2024/01/06 11:09:33;;;;;;;;;0.00;0.00;;;;;10.10;100.00;101103.25;5026748;28;45380;-87
2024/01/06 11:12:00;;;;;;;;;0.00;0.00;;;;;10.20;100.00;101107.41;5021559;28;45828;-87
2024/01/06 11:14:27;;;;;;;;;0.00;0.00;;;;;10.29;100.00;101109.81;5030438;28;45964;-86
2024/01/06 11:16:54;;;;;;;;;0.00;0.00;;;;;10.26;100.00;101099.44;5038075;28;45252;-86